createdAt,value
2018-04-14T00:02:25.306Z,12.40
2018-04-14T00:04:53.588Z,12.30
2018-04-14T00:07:21.859Z,12.30
2018-04-14T00:09:50.127Z,12.30
2018-04-14T00:12:18.396Z,12.30
2018-04-14T00:14:46.687Z,12.30
2018-04-14T00:17:14.959Z,12.30
2018-04-14T00:19:43.239Z,12.30
2018-04-14T00:22:11.515Z,12.30
2018-04-14T00:24:39.766Z,12.40
2018-04-14T00:27:08.071Z,12.40
2018-04-14T00:29:36.356Z,12.40
2018-04-14T00:32:04.607Z,12.40
2018-04-14T00:34:32.860Z,12.40
2018-04-14T00:37:01.115Z,12.40
2018-04-14T00:39:30.166Z,12.50
2018-04-14T00:41:58.436Z,12.50
2018-04-14T00:44:26.694Z,12.40
2018-04-14T00:46:54.984Z,12.50
2018-04-14T00:49:23.259Z,12.50
2018-04-14T00:51:51.527Z,12.50
2018-04-14T00:54:19.792Z,12.60
2018-04-14T00:56:48.088Z,12.60
2018-04-14T00:59:16.351Z,12.60
2018-04-14T01:01:44.638Z,12.60
2018-04-14T01:04:12.916Z,12.60
2018-04-14T01:06:41.185Z,12.50
2018-04-14T01:09:09.472Z,12.50
2018-04-14T01:11:37.741Z,12.40
2018-04-14T01:14:06.023Z,12.40
2018-04-14T01:16:34.299Z,12.30
2018-04-14T01:19:02.562Z,12.20
2018-04-14T01:21:30.829Z,12.10
2018-04-14T01:23:59.083Z,12.00
2018-04-14T01:26:28.111Z,11.80
2018-04-14T01:28:56.388Z,11.80
2018-04-14T01:31:24.663Z,11.70
2018-04-14T01:33:52.929Z,11.60
2018-04-14T01:36:21.209Z,11.60
2018-04-14T01:38:49.469Z,11.50
2018-04-14T01:41:17.754Z,11.50
2018-04-14T01:43:46.003Z,11.50
2018-04-14T01:46:14.315Z,11.50
2018-04-14T01:48:42.585Z,11.40
2018-04-14T01:51:10.849Z,11.40
2018-04-14T01:53:39.143Z,11.40
2018-04-14T01:56:07.437Z,11.40
2018-04-14T01:58:35.790Z,11.50
2018-04-14T02:01:04.047Z,11.50
2018-04-14T02:03:32.305Z,11.50
2018-04-14T02:06:00.568Z,11.60
2018-04-14T02:08:29.602Z,11.60
2018-04-14T02:10:57.892Z,11.60
2018-04-14T02:13:26.169Z,11.60
2018-04-14T02:15:54.429Z,11.50
2018-04-14T02:18:22.723Z,11.50
2018-04-14T02:20:50.997Z,11.50
2018-04-14T02:23:19.264Z,11.50
2018-04-14T02:25:47.524Z,11.50
2018-04-14T02:28:15.820Z,11.50
2018-04-14T02:30:44.075Z,11.50
2018-04-14T02:33:12.344Z,11.50
2018-04-14T02:35:40.653Z,11.50
2018-04-14T02:38:08.921Z,11.50
2018-04-14T02:40:37.199Z,11.40
2018-04-14T02:43:05.460Z,11.30
2018-04-14T02:45:33.740Z,11.30
2018-04-14T02:48:02.006Z,11.20
2018-04-14T02:50:30.270Z,11.20
2018-04-14T02:52:58.544Z,11.10
2018-04-14T02:55:26.852Z,11.10
2018-04-14T02:57:55.121Z,11.00
2018-04-14T03:00:23.385Z,10.90
2018-04-14T03:02:51.676Z,10.90
2018-04-14T03:05:19.931Z,10.80
2018-04-14T03:07:48.213Z,10.70
2018-04-14T03:10:16.547Z,10.70
2018-04-14T03:12:44.752Z,10.70
2018-04-14T03:15:13.009Z,10.70
2018-04-14T03:17:42.040Z,10.70
2018-04-14T03:20:10.305Z,10.70
2018-04-14T03:22:38.576Z,10.70
2018-04-14T03:25:06.834Z,10.80
2018-04-14T03:27:35.157Z,10.80
2018-04-14T03:30:03.422Z,10.90
2018-04-14T03:32:31.681Z,11.00
2018-04-14T03:34:59.971Z,11.10
2018-04-14T03:37:28.236Z,11.20
2018-04-14T03:39:56.504Z,11.30
2018-04-14T03:42:24.799Z,11.20
2018-04-14T03:44:53.072Z,11.20
2018-04-14T03:47:21.336Z,11.10
2018-04-14T03:49:49.607Z,11.10
2018-04-14T03:52:17.867Z,11.10
2018-04-14T03:54:46.175Z,11.10
2018-04-14T03:57:14.457Z,11.10
2018-04-14T03:59:42.832Z,11.10
2018-04-14T04:02:11.093Z,11.00
2018-04-14T04:04:39.356Z,11.00
2018-04-14T04:07:07.664Z,11.00
2018-04-14T04:09:36.020Z,10.90
2018-04-14T04:12:04.284Z,10.90
2018-04-14T04:14:32.592Z,11.00
2018-04-14T04:17:00.853Z,10.90
2018-04-14T04:19:41.062Z,10.90
2018-04-14T04:22:22.052Z,10.90
2018-04-14T04:25:01.964Z,10.80
2018-04-14T04:27:29.976Z,10.80
2018-04-14T04:29:58.005Z,10.80
2018-04-14T04:32:26.060Z,10.70
2018-04-14T04:34:54.084Z,10.70
2018-04-14T04:37:22.106Z,10.60
2018-04-14T04:39:50.156Z,10.70
2018-04-14T04:42:18.276Z,10.70
2018-04-14T04:44:46.249Z,10.80
2018-04-14T04:47:14.363Z,10.80
2018-04-14T04:49:42.444Z,10.90
2018-04-14T04:52:10.509Z,10.90
2018-04-14T04:54:38.588Z,11.00
2018-04-14T04:57:06.604Z,11.00
2018-04-14T04:59:34.622Z,11.10
2018-04-14T05:02:02.644Z,11.10
2018-04-14T05:04:30.765Z,11.20
2018-04-14T05:06:58.837Z,11.30
2018-04-14T05:09:26.860Z,11.30
2018-04-14T05:11:54.972Z,11.40
2018-04-14T05:14:22.994Z,11.50
2018-04-14T05:16:51.120Z,11.50
2018-04-14T05:19:19.189Z,11.60
2018-04-14T05:21:47.257Z,11.70
2018-04-14T05:24:15.311Z,11.70
2018-04-14T05:26:43.392Z,11.70
2018-04-14T05:29:11.413Z,11.80
2018-04-14T05:31:39.540Z,11.80
2018-04-14T05:34:07.563Z,11.80
2018-04-14T05:36:35.587Z,11.90
2018-04-14T05:39:03.600Z,11.90
2018-04-14T05:41:31.720Z,12.00
2018-04-14T05:43:59.728Z,12.00
2018-04-14T05:46:27.760Z,12.00
2018-04-14T05:48:55.780Z,12.10
2018-04-14T05:51:23.797Z,12.20
2018-04-14T05:53:51.868Z,12.20
2018-04-14T05:56:19.943Z,12.30
2018-04-14T05:58:47.951Z,12.30
2018-04-14T06:01:15.988Z,12.40
2018-04-14T06:03:44.005Z,12.30
2018-04-14T06:06:12.117Z,12.40
2018-04-14T06:08:40.961Z,12.40
2018-04-14T06:11:08.976Z,12.30
2018-04-14T06:13:36.993Z,12.40
2018-04-14T06:16:05.012Z,12.50
2018-04-14T06:18:33.788Z,12.60
2018-04-14T06:21:02.566Z,12.80
2018-04-14T06:23:30.664Z,12.70
2018-04-14T06:25:58.768Z,13.00
2018-04-14T06:28:26.809Z,13.10
2018-04-14T06:30:54.822Z,13.30
2018-04-14T06:33:22.940Z,13.40
2018-04-14T06:35:51.717Z,13.90
2018-04-14T06:38:20.508Z,14.20
2018-04-14T06:40:49.282Z,14.50
2018-04-14T06:43:17.304Z,14.50
2018-04-14T06:45:45.335Z,14.80
2018-04-14T06:48:14.236Z,15.10
2018-04-14T06:50:42.253Z,15.10
2018-04-14T06:53:10.270Z,15.20
2018-04-14T06:55:39.049Z,15.50
2018-04-14T06:58:07.834Z,15.40
2018-04-14T07:00:36.620Z,15.40
2018-04-14T07:03:05.420Z,15.40
2018-04-14T07:05:33.433Z,15.30
2018-04-14T07:08:01.448Z,15.20
2018-04-14T07:10:30.247Z,14.90
2018-04-14T07:12:58.277Z,14.90
2018-04-14T07:15:26.293Z,14.90
2018-04-14T07:17:54.361Z,14.90
2018-04-14T07:20:22.377Z,15.00
2018-04-14T07:22:50.392Z,15.30
2018-04-14T07:25:19.192Z,15.60
2018-04-14T07:27:47.204Z,15.60
2018-04-14T07:30:15.316Z,16.30
2018-04-14T07:32:44.121Z,18.40
2018-04-14T07:35:12.129Z,18.40
2018-04-14T07:37:40.144Z,18.80
2018-04-14T07:40:08.921Z,20.10
2018-04-14T07:42:37.720Z,20.30
2018-04-14T07:45:06.512Z,20.80
2018-04-14T07:47:35.288Z,21.00
2018-04-14T07:50:04.068Z,21.70
2018-04-14T07:52:32.876Z,22.00
2018-04-14T07:55:00.953Z,22.00
2018-04-14T07:57:28.952Z,22.50
2018-04-14T07:59:56.986Z,22.90
2018-04-14T08:02:25.757Z,23.00
2018-04-14T08:04:54.540Z,22.90
2018-04-14T08:07:22.548Z,22.90
2018-04-14T08:09:50.568Z,23.00
2018-04-14T08:12:18.667Z,22.30
2018-04-14T08:14:47.452Z,22.20
2018-04-14T08:17:16.261Z,22.10
2018-04-14T08:19:44.308Z,22.10
2018-04-14T08:22:13.112Z,21.30
2018-04-14T08:24:41.175Z,21.30
2018-04-14T08:27:10.754Z,19.30
2018-04-14T08:29:38.852Z,19.20
2018-04-14T08:32:07.633Z,20.00
2018-04-14T08:34:36.424Z,20.30
2018-04-14T08:37:05.210Z,20.70
2018-04-14T08:39:33.979Z,21.20
2018-04-14T08:42:02.760Z,21.60
2018-04-14T08:44:30.772Z,21.60
2018-04-14T08:46:58.784Z,22.00
2018-04-14T08:49:26.888Z,22.30
2018-04-14T08:51:55.693Z,21.70
2018-04-14T08:54:23.704Z,21.70
2018-04-14T08:56:51.821Z,21.50
2018-04-14T08:59:20.591Z,20.30
2018-04-14T09:01:49.359Z,20.30
2018-04-14T09:04:17.380Z,20.30
2018-04-14T09:06:45.389Z,19.70
2018-04-14T09:09:13.404Z,19.20
2018-04-14T09:11:42.181Z,18.90
2018-04-14T09:14:11.018Z,19.20
2018-04-14T09:16:39.044Z,19.20
2018-04-14T09:19:07.303Z,19.60
2018-04-14T09:21:35.552Z,19.60
2018-04-14T09:24:04.581Z,19.00
2018-04-14T09:26:32.832Z,19.00
2018-04-14T09:29:01.856Z,18.70
2018-04-14T09:31:30.126Z,18.60
2018-04-14T09:33:58.416Z,18.80
2018-04-14T09:36:26.688Z,19.50
2018-04-14T09:38:54.960Z,20.00
2018-04-14T09:41:23.243Z,20.50
2018-04-14T09:43:51.522Z,20.50
2018-04-14T09:46:19.792Z,20.60
2018-04-14T09:48:48.039Z,20.60
2018-04-14T09:51:16.304Z,20.50
2018-04-14T09:53:45.327Z,20.50
2018-04-14T09:56:13.609Z,20.50
2018-04-14T09:58:41.892Z,21.10
2018-04-14T10:01:15.840Z,21.60
2018-04-14T10:03:50.901Z,21.10
2018-04-14T10:06:19.216Z,21.10
2018-04-14T10:08:47.416Z,21.00
2018-04-14T10:11:15.684Z,21.30
2018-04-14T10:13:44.029Z,21.50
2018-04-14T10:16:12.310Z,21.40
2018-04-14T10:18:40.541Z,21.20
2018-04-14T10:21:09.585Z,20.80
2018-04-14T10:23:37.828Z,20.80
2018-04-14T10:26:06.124Z,20.60
2018-04-14T10:28:34.393Z,20.80
2018-04-14T10:31:02.665Z,20.90
2018-04-14T10:33:30.921Z,20.90
2018-04-14T10:35:59.176Z,20.70
2018-04-14T10:38:28.212Z,20.10
2018-04-14T10:40:56.501Z,20.10
2018-04-14T10:43:24.768Z,19.60
2018-04-14T10:45:53.028Z,19.40
2018-04-14T10:48:21.320Z,19.20
2018-04-14T10:50:49.601Z,19.10
2018-04-14T10:53:17.853Z,19.00
2018-04-14T10:55:46.181Z,19.10
2018-04-14T10:58:14.372Z,19.20
2018-04-14T11:00:43.408Z,19.30
2018-04-14T11:03:11.701Z,19.30
2018-04-14T11:05:39.956Z,19.20
2018-04-14T11:08:08.217Z,19.20
2018-04-14T11:10:36.477Z,19.30
2018-04-14T11:13:05.494Z,19.40
2018-04-14T11:15:33.781Z,19.40
2018-04-14T11:18:02.056Z,19.40
2018-04-14T11:20:30.351Z,19.50
2018-04-14T11:22:58.565Z,19.60
2018-04-14T11:25:27.593Z,20.00
2018-04-14T11:27:55.889Z,20.00
2018-04-14T11:30:24.149Z,20.20
2018-04-14T11:32:52.409Z,20.10
2018-04-14T11:35:20.656Z,19.80
2018-04-14T11:37:49.677Z,19.20
2018-04-14T11:40:17.976Z,19.10
2018-04-14T11:42:46.257Z,19.00
2018-04-14T11:45:14.510Z,18.90
2018-04-14T11:47:42.796Z,18.90
2018-04-14T11:50:11.053Z,19.00
2018-04-14T11:52:39.360Z,19.00
2018-04-14T11:55:07.728Z,19.00
2018-04-14T11:57:36.001Z,18.80
2018-04-14T12:00:04.276Z,18.90
2018-04-14T12:02:32.537Z,19.20
2018-04-14T12:05:00.833Z,19.40
2018-04-14T12:07:29.089Z,19.50
2018-04-14T12:09:57.380Z,19.40
2018-04-14T12:12:25.657Z,19.40
2018-04-14T12:14:53.899Z,19.30
2018-04-14T12:17:22.147Z,19.20
2018-04-14T12:19:50.453Z,19.10
2018-04-14T12:22:18.710Z,19.10
2018-04-14T12:24:47.736Z,19.00
2018-04-14T12:27:16.060Z,19.00
2018-04-14T12:29:44.329Z,19.00
2018-04-14T12:32:12.571Z,18.90
2018-04-14T12:34:40.832Z,19.00
2018-04-14T12:37:09.653Z,19.00
2018-04-14T12:39:37.904Z,19.10
2018-04-14T12:42:06.193Z,19.20
2018-04-14T12:44:34.466Z,19.00
2018-04-14T12:47:02.748Z,18.90
2018-04-14T12:49:31.020Z,18.80
2018-04-14T12:51:59.291Z,18.90
2018-04-14T12:54:27.543Z,18.80
2018-04-14T12:56:55.839Z,18.60
2018-04-14T12:59:24.121Z,18.60
2018-04-14T13:01:52.381Z,18.60
2018-04-14T13:04:20.672Z,18.50
2018-04-14T13:06:48.940Z,18.40
2018-04-14T13:09:17.225Z,18.30
2018-04-14T13:11:45.471Z,18.20
2018-04-14T13:14:13.788Z,18.30
2018-04-14T13:16:42.023Z,18.30
2018-04-14T13:19:10.334Z,18.30
2018-04-14T13:21:38.622Z,18.30
2018-04-14T13:24:06.860Z,18.40
2018-04-14T13:26:35.121Z,18.60
2018-04-14T13:29:03.380Z,18.80
2018-04-14T13:31:32.393Z,19.40
2018-04-14T13:34:00.648Z,19.40
2018-04-14T13:36:29.683Z,19.90
2018-04-14T13:38:57.932Z,19.80
2018-04-14T13:41:26.232Z,20.00
2018-04-14T13:43:54.514Z,20.10
2018-04-14T13:46:22.764Z,20.20
2018-04-14T13:48:51.059Z,20.20
2018-04-14T13:51:19.312Z,20.20
2018-04-14T13:53:47.574Z,20.00
2018-04-14T13:56:15.894Z,20.00
2018-04-14T13:58:44.176Z,20.00
2018-04-14T14:01:12.405Z,19.90
2018-04-14T14:03:40.712Z,19.80
2018-04-14T14:06:08.981Z,19.70
2018-04-14T14:08:37.260Z,19.70
2018-04-14T14:11:05.541Z,19.60
2018-04-14T14:13:33.789Z,19.50
2018-04-14T14:16:02.040Z,19.50
2018-04-14T14:18:31.061Z,19.70
2018-04-14T14:20:59.320Z,19.70
2018-04-14T14:23:27.574Z,19.70
2018-04-14T14:25:55.904Z,19.70
2018-04-14T14:28:24.151Z,19.80
2018-04-14T14:30:52.413Z,19.80
2018-04-14T14:33:21.415Z,19.80
2018-04-14T14:35:49.719Z,19.80
2018-04-14T14:38:17.976Z,19.80
2018-04-14T14:40:46.239Z,19.70
2018-04-14T14:43:15.260Z,19.60
2018-04-14T14:45:43.548Z,19.60
2018-04-14T14:48:11.788Z,19.60
2018-04-14T14:50:40.092Z,19.70
2018-04-14T14:53:08.374Z,19.80
2018-04-14T14:55:36.634Z,19.90
2018-04-14T14:58:04.884Z,20.00
2018-04-14T15:00:33.909Z,20.20
2018-04-14T15:03:02.148Z,20.20
2018-04-14T15:05:31.157Z,20.30
2018-04-14T15:07:59.457Z,20.30
2018-04-14T15:10:27.729Z,20.20
2018-04-14T15:12:55.972Z,20.10
2018-04-14T15:15:25.002Z,20.00
2018-04-14T15:17:53.240Z,20.00
2018-04-14T15:20:22.271Z,20.20
2018-04-14T15:22:50.522Z,20.20
2018-04-14T15:25:18.821Z,20.30
2018-04-14T15:27:47.091Z,20.20
2018-04-14T15:30:15.375Z,20.00
2018-04-14T15:32:43.639Z,19.90
2018-04-14T15:35:11.876Z,19.90
2018-04-14T15:37:40.897Z,19.90
2018-04-14T15:40:09.148Z,19.90
2018-04-14T15:42:38.172Z,20.00
2018-04-14T15:45:06.412Z,20.00
2018-04-14T15:47:35.427Z,19.80
2018-04-14T15:50:03.726Z,19.80
2018-04-14T15:52:32.967Z,19.70
2018-04-14T15:55:01.190Z,19.70
2018-04-14T15:57:29.436Z,19.70
2018-04-14T15:59:57.780Z,19.80
2018-04-14T16:02:26.009Z,19.80
2018-04-14T16:04:54.301Z,19.70
2018-04-14T16:07:22.557Z,19.50
2018-04-14T16:09:50.800Z,19.40
2018-04-14T16:12:19.833Z,19.40
2018-04-14T16:14:48.117Z,19.40
2018-04-14T16:17:16.387Z,19.40
2018-04-14T16:19:44.669Z,19.40
2018-04-14T16:22:12.915Z,19.40
2018-04-14T16:24:41.157Z,19.40
2018-04-14T16:27:10.909Z,19.30
2018-04-14T16:29:39.207Z,19.30
2018-04-14T16:32:07.473Z,19.30
2018-04-14T16:34:35.725Z,19.50
2018-04-14T16:37:04.021Z,19.40
2018-04-14T16:39:32.997Z,19.20
2018-04-14T16:42:01.288Z,19.20
2018-04-14T16:44:29.564Z,19.00
2018-04-14T16:46:57.839Z,18.90
2018-04-14T16:49:26.188Z,18.80
2018-04-14T16:51:54.380Z,18.60
2018-04-14T16:54:22.672Z,18.50
2018-04-14T16:56:50.933Z,18.30
2018-04-14T16:59:19.194Z,18.10
2018-04-14T17:01:47.871Z,18.00
2018-04-14T17:04:16.909Z,17.70
2018-04-14T17:06:45.176Z,17.60
2018-04-14T17:09:13.489Z,17.50
2018-04-14T17:11:41.724Z,17.40
2018-04-14T17:14:09.980Z,17.20
2018-04-14T17:16:38.284Z,17.10
2018-04-14T17:19:06.554Z,17.00
2018-04-14T17:21:34.800Z,16.80
2018-04-14T17:24:03.065Z,16.70
2018-04-14T17:26:31.322Z,16.60
2018-04-14T17:28:59.580Z,16.50
2018-04-14T17:31:27.835Z,16.40
2018-04-14T17:33:56.204Z,16.40
2018-04-14T17:36:24.489Z,16.30
2018-04-14T17:38:52.867Z,16.20
2018-04-14T17:41:21.117Z,16.10
2018-04-14T17:43:49.379Z,16.00
2018-04-14T17:46:17.641Z,16.00
2018-04-14T17:48:46.676Z,15.80
2018-04-14T17:51:14.972Z,15.80
2018-04-14T17:53:43.228Z,15.80
2018-04-14T17:56:11.479Z,15.80
2018-04-14T17:58:39.785Z,15.80
2018-04-14T18:01:08.033Z,15.70
2018-04-14T18:03:36.300Z,15.60
2018-04-14T18:06:04.547Z,15.60
2018-04-14T18:08:33.601Z,15.40
2018-04-14T18:11:01.855Z,15.40
2018-04-14T18:13:30.123Z,15.30
2018-04-14T18:15:58.371Z,15.30
2018-04-14T18:18:27.415Z,15.10
2018-04-14T18:20:55.673Z,15.10
2018-04-14T18:23:24.332Z,15.10
2018-04-14T18:25:53.367Z,15.00
2018-04-14T18:28:21.648Z,15.00
2018-04-14T18:30:49.915Z,14.90
2018-04-14T18:33:18.189Z,14.80
2018-04-14T18:35:46.920Z,14.80
2018-04-14T18:38:15.156Z,14.70
2018-04-14T18:40:43.420Z,14.60
2018-04-14T18:43:11.676Z,14.40
2018-04-14T18:45:39.979Z,14.30
2018-04-14T18:48:08.256Z,14.20
2018-04-14T18:50:36.527Z,14.20
2018-04-14T18:53:04.775Z,14.10
2018-04-14T18:55:33.048Z,14.00
2018-04-14T18:58:01.361Z,13.90
2018-04-14T19:00:29.636Z,13.80
2018-04-14T19:02:57.892Z,13.70
2018-04-14T19:05:26.160Z,13.70
2018-04-14T19:07:54.560Z,13.60
2018-04-14T19:10:22.871Z,13.50
2018-04-14T19:12:51.113Z,13.50
2018-04-14T19:15:19.377Z,13.50
2018-04-14T19:17:47.705Z,13.40
2018-04-14T19:20:15.949Z,13.40
2018-04-14T19:22:44.213Z,13.40
2018-04-14T19:25:12.488Z,13.30
2018-04-14T19:27:40.774Z,13.30
2018-04-14T19:30:09.036Z,13.30
2018-04-14T19:32:37.299Z,13.20
2018-04-14T19:35:05.560Z,13.10
2018-04-14T19:37:33.869Z,13.10
2018-04-14T19:40:02.137Z,13.10
2018-04-14T19:42:30.401Z,13.00
2018-04-14T19:44:58.688Z,13.00
2018-04-14T19:47:26.965Z,13.00
2018-04-14T19:49:55.355Z,13.00
2018-04-14T19:52:23.608Z,12.90
2018-04-14T19:54:51.936Z,12.90
2018-04-14T19:57:20.275Z,12.90
2018-04-14T19:59:48.632Z,12.80
2018-04-14T20:02:16.932Z,12.80
2018-04-14T20:04:45.241Z,12.70
2018-04-14T20:07:13.480Z,12.70
2018-04-14T20:09:41.736Z,12.60
2018-04-14T20:12:10.069Z,12.60
2018-04-14T20:14:38.418Z,12.50
2018-04-14T20:17:06.697Z,12.50
2018-04-14T20:19:34.957Z,12.50
2018-04-14T20:22:03.221Z,12.50
2018-04-14T20:24:31.550Z,12.40
2018-04-14T20:26:59.788Z,12.40
2018-04-14T20:29:28.044Z,12.40
2018-04-14T20:31:56.308Z,12.50
2018-04-14T20:34:24.612Z,12.50
2018-04-14T20:36:52.928Z,12.40
2018-04-14T20:39:21.157Z,12.50
2018-04-14T20:41:49.421Z,12.50
2018-04-14T20:44:17.717Z,12.50
2018-04-14T20:46:46.047Z,12.50
2018-04-14T20:49:14.239Z,12.50
2018-04-14T20:51:42.515Z,12.50
2018-04-14T20:54:10.772Z,12.50
2018-04-14T20:56:39.800Z,12.50
2018-04-14T20:59:08.108Z,12.40
2018-04-14T21:01:36.378Z,12.40
2018-04-14T21:04:04.736Z,12.40
2018-04-14T21:06:33.004Z,12.40
2018-04-14T21:09:01.358Z,12.30
2018-04-14T21:11:29.621Z,12.30
2018-04-14T21:13:58.645Z,12.20
2018-04-14T21:16:26.925Z,12.20
2018-04-14T21:18:55.226Z,12.20
2018-04-14T21:21:23.518Z,12.10
2018-04-14T21:23:51.768Z,12.10
2018-04-14T21:26:20.025Z,12.10
2018-04-14T21:28:48.283Z,12.10
2018-04-14T21:31:16.541Z,12.00
2018-04-14T21:33:45.688Z,12.00
2018-04-14T21:36:13.941Z,12.00
2018-04-14T21:38:42.204Z,12.00
2018-04-14T21:41:10.534Z,12.00
2018-04-14T21:43:38.745Z,11.90
2018-04-14T21:46:07.767Z,11.90
2018-04-14T21:48:36.040Z,11.80
2018-04-14T21:51:04.300Z,11.80
2018-04-14T21:53:32.570Z,11.80
2018-04-14T21:56:00.887Z,11.70
2018-04-14T21:58:29.148Z,11.60
2018-04-14T22:00:57.411Z,11.50
2018-04-14T22:03:25.667Z,11.40
2018-04-14T22:05:53.976Z,11.30
2018-04-14T22:08:22.256Z,11.20
2018-04-14T22:10:50.514Z,11.20
2018-04-14T22:13:18.814Z,11.20
2018-04-14T22:15:47.070Z,11.10
2018-04-14T22:18:15.333Z,11.10
2018-04-14T22:20:43.646Z,11.10
2018-04-14T22:23:12.020Z,11.00
2018-04-14T22:25:40.289Z,11.00
2018-04-14T22:28:08.563Z,10.90
2018-04-14T22:30:36.856Z,10.90
2018-04-14T22:33:05.067Z,10.80
2018-04-14T22:35:33.394Z,10.70
2018-04-14T22:38:01.668Z,10.70
2018-04-14T22:40:29.924Z,10.70
2018-04-14T22:42:58.180Z,10.70
2018-04-14T22:45:26.449Z,10.60
2018-04-14T22:47:54.769Z,10.60
2018-04-14T22:50:23.045Z,10.60
2018-04-14T22:52:51.304Z,10.50
2018-04-14T22:55:19.563Z,10.50
2018-04-14T22:57:47.876Z,10.40
2018-04-14T23:00:16.968Z,10.40
2018-04-14T23:02:45.031Z,10.30
2018-04-14T23:05:13.297Z,10.30
2018-04-14T23:07:41.555Z,10.20
2018-04-14T23:10:09.851Z,10.20
2018-04-14T23:12:38.111Z,10.10
2018-04-14T23:15:06.411Z,10.10
2018-04-14T23:17:34.697Z,10.10
2018-04-14T23:20:02.960Z,10.10
2018-04-14T23:22:31.848Z,10.10
2018-04-14T23:25:00.107Z,10.00
2018-04-14T23:27:30.207Z,10.00
2018-04-14T23:29:58.524Z,9.90
2018-04-14T23:32:26.780Z,9.90
2018-04-14T23:34:55.036Z,9.80
2018-04-14T23:37:23.291Z,9.80
2018-04-14T23:39:52.329Z,9.90
2018-04-14T23:42:20.595Z,9.80
2018-04-14T23:44:48.892Z,9.90
2018-04-14T23:47:17.166Z,9.90
2018-04-14T23:49:45.419Z,9.90
2018-04-14T23:52:13.712Z,9.90
2018-04-14T23:54:41.993Z,9.90
2018-04-14T23:57:10.898Z,9.90
2018-04-14T23:59:39.148Z,9.80
